Lower Edmonton, United Kingdom
Current Conditions -  °F | °C
As of 8:20 PM on Sunday 21 Dec 2014 (Local Time) from EGLC Reporting Station
Broken Clouds Broken Clouds  
Wind Chill: 12°   Ceiling: 1200
Heat Index: 12°   Visibility: 6mi
Dew Point:   Wind: 20mph
Humidity: 77%   Direction: 230°SW
Pressure: 30.18"   Gusts: NA
Location:  51.63°N, 0.04°W
Report Text: EGLC 212020Z 23017KT 9999 BKN012 BKN018 12/08 Q1022
Loading
Personal Weather Stations






























Interactive Weather Map New forecast layout! Learn more

10-Day Weather Forecast

Advertisements
Track Severe Weather on mobile